createdAt,value
2022-12-23T00:00:44.431Z,56.33
2022-12-23T00:03:11.591Z,50.70
2022-12-23T00:05:39.794Z,51.13
2022-12-23T00:08:07.770Z,50.38
2022-12-23T00:10:38.135Z,55.60
2022-12-23T00:13:23.394Z,52.70
2022-12-23T00:15:50.177Z,50.80
2022-12-23T00:18:17.049Z,53.72
2022-12-23T00:20:43.839Z,55.40
2022-12-23T00:23:10.651Z,54.55
2022-12-23T00:25:42.309Z,53.92
2022-12-23T00:28:11.667Z,56.17
2022-12-23T00:30:51.880Z,55.20
2022-12-23T00:33:23.470Z,56.95
2022-12-23T00:35:50.809Z,62.03
2022-12-23T00:38:38.641Z,57.95
2022-12-23T00:41:43.929Z,62.00
2022-12-23T00:44:10.931Z,58.83
2022-12-23T00:49:23.492Z,61.90
2022-12-23T00:51:50.698Z,59.90
2022-12-23T00:54:17.942Z,61.53
2022-12-23T00:56:44.965Z,59.70
2022-12-23T01:01:57.252Z,63.05
2022-12-23T01:04:42.895Z,63.53
2022-12-23T01:07:10.322Z,58.53
2022-12-23T01:09:37.169Z,60.25
2022-12-23T01:12:04.405Z,61.17
2022-12-23T01:14:32.044Z,67.63
2022-12-23T01:16:58.961Z,60.17
2022-12-23T01:19:26.160Z,61.85
2022-12-23T01:21:52.881Z,66.55
2022-12-23T01:24:19.941Z,62.65
2022-12-23T01:29:13.571Z,66.70
2022-12-23T01:31:40.357Z,63.60
2022-12-23T01:34:07.242Z,67.90
2022-12-23T01:36:34.051Z,69.88
2022-12-23T01:39:00.908Z,62.97
2022-12-23T01:41:48.838Z,65.32
2022-12-23T01:44:48.776Z,65.72
2022-12-23T01:47:34.167Z,60.72
2022-12-23T01:50:27.057Z,61.28
2022-12-23T01:53:17.183Z,62.05
2022-12-23T01:55:59.260Z,66.97
2022-12-23T01:58:48.496Z,66.93
2022-12-23T02:01:34.061Z,68.45
2022-12-23T02:04:11.393Z,69.75
2022-12-23T02:07:01.413Z,66.65
2022-12-23T02:09:29.451Z,56.95
2022-12-23T02:12:05.183Z,52.45
2022-12-23T02:15:09.519Z,49.67
2022-12-23T02:17:42.329Z,49.90
2022-12-23T02:20:53.897Z,46.88
2022-12-23T02:24:08.793Z,50.03
2022-12-23T02:26:53.610Z,44.75
2022-12-23T02:29:57.692Z,45.83
2022-12-23T02:32:42.848Z,48.00
2022-12-23T02:35:14.897Z,44.97
2022-12-23T02:37:47.412Z,41.83
2022-12-23T02:40:38.620Z,44.45
2022-12-23T02:43:29.896Z,45.72
2022-12-23T02:46:15.258Z,46.25
2022-12-23T02:48:49.138Z,44.95
2022-12-23T02:51:17.018Z,41.40
2022-12-23T02:53:59.562Z,43.45
2022-12-23T02:56:29.512Z,45.15
2022-12-23T02:59:01.811Z,42.55
2022-12-23T03:01:31.694Z,43.95
2022-12-23T03:03:58.675Z,42.78
2022-12-23T03:06:32.990Z,42.28
2022-12-23T03:09:00.611Z,48.85
2022-12-23T03:11:51.004Z,40.80
2022-12-23T03:14:50.260Z,42.70
2022-12-23T03:17:39.665Z,43.20
2022-12-23T03:20:35.880Z,47.53
2022-12-23T03:23:23.122Z,44.05
2022-12-23T03:26:21.809Z,43.63
2022-12-23T03:29:01.354Z,43.05
2022-12-23T03:31:31.179Z,44.67
2022-12-23T03:34:05.467Z,44.05
2022-12-23T03:36:37.072Z,37.60
2022-12-23T03:39:07.723Z,38.35
2022-12-23T03:41:40.939Z,38.22
2022-12-23T03:44:16.854Z,39.35
2022-12-23T03:47:00.765Z,38.75
2022-12-23T03:49:38.025Z,40.53
2022-12-23T03:52:20.769Z,39.45
2022-12-23T03:55:00.043Z,43.90
2022-12-23T03:57:32.371Z,40.22
2022-12-23T03:59:59.170Z,41.60
2022-12-23T04:02:50.205Z,39.50
2022-12-23T04:05:32.179Z,35.90
2022-12-23T04:08:01.722Z,39.50
2022-12-23T04:10:28.822Z,43.88
2022-12-23T04:15:23.998Z,39.13
2022-12-23T04:17:52.018Z,37.85
2022-12-23T04:20:19.087Z,38.53
2022-12-23T04:25:14.639Z,41.00
2022-12-23T04:27:41.801Z,40.45
2022-12-23T04:30:10.537Z,39.30
2022-12-23T04:32:38.067Z,47.35
2022-12-23T04:35:05.342Z,49.08
2022-12-23T04:37:32.109Z,46.53
2022-12-23T04:39:59.011Z,47.92
2022-12-23T04:42:25.936Z,48.40
2022-12-23T04:44:52.712Z,45.25
2022-12-23T04:47:19.509Z,41.78
2022-12-23T04:49:46.435Z,43.10
2022-12-23T04:52:13.190Z,45.65
2022-12-23T04:54:45.812Z,50.08
2022-12-23T04:57:13.263Z,43.30
2022-12-23T04:59:40.104Z,39.33
2022-12-23T05:02:08.736Z,40.50
2022-12-23T05:04:35.807Z,39.35
2022-12-23T05:09:29.250Z,42.80
2022-12-23T05:11:55.951Z,40.05
2022-12-23T05:14:22.796Z,47.45
2022-12-23T05:16:49.612Z,37.60
2022-12-23T05:19:16.449Z,45.58
2022-12-23T05:21:43.205Z,40.55
2022-12-23T05:24:09.979Z,43.47
2022-12-23T05:26:36.830Z,43.05
2022-12-23T05:29:03.631Z,43.13
2022-12-23T05:31:30.566Z,44.45
2022-12-23T05:34:02.337Z,40.33
2022-12-23T05:36:32.698Z,39.55
2022-12-23T05:38:59.403Z,41.92
2022-12-23T05:41:26.172Z,39.08
2022-12-23T05:43:52.948Z,37.90
2022-12-23T05:46:25.956Z,35.95
2022-12-23T05:48:53.527Z,39.13
2022-12-23T05:51:20.375Z,34.67
2022-12-23T05:53:47.112Z,39.00
2022-12-23T05:56:13.848Z,34.33
2022-12-23T05:58:40.574Z,35.00
2022-12-23T06:01:08.323Z,35.33
2022-12-23T06:03:35.296Z,35.47
2022-12-23T06:08:28.854Z,32.45
2022-12-23T06:10:55.651Z,32.30
2022-12-23T06:13:22.467Z,31.95
2022-12-23T06:15:49.374Z,32.53
2022-12-23T06:18:16.191Z,31.30
2022-12-23T06:20:46.657Z,33.67
2022-12-23T06:23:13.604Z,29.73
2022-12-23T06:25:40.397Z,31.02
2022-12-23T06:28:08.020Z,32.30
2022-12-23T06:30:35.189Z,32.05
2022-12-23T06:35:28.772Z,31.02
2022-12-23T06:37:55.705Z,33.55
2022-12-23T06:40:22.512Z,33.33
2022-12-23T06:42:49.325Z,33.58
2022-12-23T06:45:16.178Z,33.10
2022-12-23T06:47:42.998Z,33.05
2022-12-23T06:50:10.309Z,34.53
2022-12-23T06:52:37.094Z,33.92
2022-12-23T06:55:04.175Z,32.30
2022-12-23T06:59:57.522Z,32.20
2022-12-23T07:02:24.786Z,30.83
2022-12-23T07:04:51.574Z,34.55
2022-12-23T07:07:18.677Z,31.58
2022-12-23T07:12:12.075Z,31.02
2022-12-23T07:14:38.853Z,36.35
2022-12-23T07:17:05.754Z,31.98
2022-12-23T07:19:32.553Z,39.83
2022-12-23T07:21:59.326Z,35.33
2022-12-23T07:24:26.084Z,38.90
2022-12-23T07:26:53.020Z,40.03
2022-12-23T07:29:19.839Z,41.05
2022-12-23T07:31:46.587Z,47.92
2022-12-23T07:34:13.415Z,40.03
2022-12-23T07:36:40.219Z,43.72
2022-12-23T07:39:07.009Z,36.28
2022-12-23T07:41:33.772Z,30.42
2022-12-23T07:44:00.536Z,35.72
2022-12-23T07:46:27.396Z,29.98
2022-12-23T07:48:54.234Z,30.92
2022-12-23T07:51:21.062Z,29.08
2022-12-23T07:53:51.113Z,27.05
2022-12-23T07:56:18.852Z,28.98
2022-12-23T07:58:52.654Z,26.85
2022-12-23T08:01:20.623Z,140.57
2022-12-23T08:03:47.991Z,28.88
2022-12-23T08:06:16.214Z,28.63
2022-12-23T08:08:45.345Z,29.73
2022-12-23T08:11:13.298Z,35.17
2022-12-23T08:13:42.678Z,27.05
2022-12-23T08:16:10.675Z,27.92
2022-12-23T08:18:39.247Z,33.00
2022-12-23T08:21:19.026Z,31.83
2022-12-23T08:26:20.970Z,29.85
2022-12-23T08:28:51.464Z,34.22
2022-12-23T08:31:31.854Z,29.77
2022-12-23T08:34:00.041Z,27.77
2022-12-23T08:36:32.602Z,34.20
2022-12-23T08:39:01.497Z,35.90
2022-12-23T08:41:31.682Z,35.38
2022-12-23T08:43:58.688Z,31.70
2022-12-23T08:48:53.063Z,29.73
2022-12-23T08:51:21.351Z,30.90
2022-12-23T08:53:48.653Z,32.50
2022-12-23T08:56:22.712Z,38.33
2022-12-23T08:58:51.119Z,36.80
2022-12-23T09:01:19.654Z,37.08
2022-12-23T09:03:47.064Z,33.35
2022-12-23T09:06:28.677Z,32.88
2022-12-23T09:08:57.328Z,36.65
2022-12-23T09:11:26.612Z,35.95
2022-12-23T09:13:54.372Z,43.83
2022-12-23T09:16:22.254Z,39.72
2022-12-23T09:18:49.189Z,38.50
2022-12-23T09:21:19.198Z,39.38
2022-12-23T09:23:46.485Z,36.33
2022-12-23T09:26:22.304Z,37.60
2022-12-23T09:28:49.208Z,44.05
2022-12-23T09:31:16.224Z,41.22
2022-12-23T09:36:09.959Z,47.75
2022-12-23T09:38:37.697Z,37.40
2022-12-23T09:41:15.180Z,38.90
2022-12-23T09:44:02.168Z,35.85
2022-12-23T09:46:32.584Z,38.00
2022-12-23T09:49:13.018Z,31.65
2022-12-23T09:51:39.871Z,39.63
2022-12-23T09:54:23.005Z,39.03
2022-12-23T09:57:00.238Z,37.15
2022-12-23T09:59:51.105Z,38.92
2022-12-23T10:02:35.721Z,42.28
2022-12-23T10:05:21.411Z,41.53
2022-12-23T10:08:02.542Z,54.00
2022-12-23T10:10:38.840Z,46.22
2022-12-23T10:13:08.138Z,46.65
2022-12-23T10:15:47.378Z,46.75
2022-12-23T10:18:39.975Z,49.13
2022-12-23T10:21:26.232Z,50.90
2022-12-23T10:23:55.170Z,50.30
2022-12-23T10:26:31.516Z,51.22
2022-12-23T10:29:19.692Z,49.75
2022-12-23T10:31:57.987Z,51.65
2022-12-23T10:34:52.268Z,56.88
2022-12-23T10:37:24.941Z,46.97
2022-12-23T10:40:17.487Z,47.90
2022-12-23T10:43:26.814Z,49.92
2022-12-23T10:46:17.781Z,47.58
2022-12-23T10:48:55.050Z,54.90
2022-12-23T10:51:47.997Z,52.22
2022-12-23T10:54:35.085Z,51.03
2022-12-23T10:57:03.367Z,51.00
2022-12-23T10:59:34.645Z,50.50
2022-12-23T11:02:11.514Z,54.42
2022-12-23T11:04:47.200Z,49.65
2022-12-23T11:10:18.490Z,49.15
2022-12-23T11:12:50.677Z,49.83
2022-12-23T11:15:33.755Z,48.13
2022-12-23T11:18:18.498Z,48.67
2022-12-23T11:21:00.828Z,53.05
2022-12-23T11:23:30.750Z,51.65
2022-12-23T11:26:02.071Z,45.85
2022-12-23T11:28:30.186Z,51.65
2022-12-23T11:31:08.711Z,49.78
2022-12-23T11:33:48.017Z,49.97
2022-12-23T11:36:23.897Z,48.88
2022-12-23T11:39:04.710Z,45.60
2022-12-23T11:41:44.138Z,44.63
2022-12-23T11:44:16.786Z,64.72
2022-12-23T11:46:43.538Z,48.30
2022-12-23T11:49:22.628Z,44.92
2022-12-23T11:52:00.925Z,45.80
2022-12-23T11:54:28.466Z,48.45
2022-12-23T11:56:56.058Z,47.13
2022-12-23T11:59:22.788Z,46.15
2022-12-23T12:01:49.790Z,45.83
2022-12-23T12:04:22.207Z,46.40
2022-12-23T12:06:56.087Z,45.50
2022-12-23T12:09:24.259Z,45.67
2022-12-23T12:12:07.178Z,45.70
2022-12-23T12:14:54.313Z,42.72
2022-12-23T12:17:44.309Z,46.38
2022-12-23T12:20:20.819Z,44.00
2022-12-23T12:22:57.420Z,41.40
2022-12-23T12:25:50.603Z,45.03
2022-12-23T12:28:37.600Z,44.35
2022-12-23T12:31:17.044Z,44.20
2022-12-23T12:34:12.380Z,43.00
2022-12-23T12:36:59.991Z,42.72
2022-12-23T12:39:38.104Z,41.03
2022-12-23T12:42:53.421Z,43.13
2022-12-23T12:45:24.703Z,43.70
2022-12-23T12:48:11.630Z,41.78
2022-12-23T12:51:04.438Z,39.80
2022-12-23T12:53:33.540Z,38.78
2022-12-23T12:56:14.685Z,38.88
2022-12-23T12:58:44.558Z,44.03
2022-12-23T13:01:23.936Z,39.08
2022-12-23T13:04:20.856Z,42.60
2022-12-23T13:06:51.374Z,37.00
2022-12-23T13:09:31.254Z,39.50
2022-12-23T13:12:19.309Z,36.45
2022-12-23T13:15:00.527Z,34.75
2022-12-23T13:17:42.617Z,33.72
2022-12-23T13:20:34.386Z,33.78
2022-12-23T13:23:41.681Z,31.95
2022-12-23T13:26:09.986Z,35.33
2022-12-23T13:29:04.626Z,35.03
2022-12-23T13:31:37.423Z,34.83
2022-12-23T13:34:25.261Z,36.17
2022-12-23T13:37:27.791Z,32.88
2022-12-23T13:40:09.625Z,35.00
2022-12-23T13:42:43.831Z,35.05
2022-12-23T13:45:16.576Z,57.35
2022-12-23T13:48:22.521Z,40.92
2022-12-23T13:51:03.914Z,33.80
2022-12-23T13:53:47.394Z,35.95
2022-12-23T13:56:22.383Z,36.15
2022-12-23T13:58:50.670Z,34.90
2022-12-23T14:01:21.999Z,38.05
2022-12-23T14:03:50.771Z,34.83
2022-12-23T14:06:26.375Z,37.42
2022-12-23T14:08:54.339Z,41.97
2022-12-23T14:11:24.614Z,46.03
2022-12-23T14:13:55.246Z,50.50
2022-12-23T14:16:30.978Z,58.75
2022-12-23T14:19:19.061Z,52.50
2022-12-23T14:22:07.896Z,51.38
2022-12-23T14:24:53.168Z,52.60
2022-12-23T14:27:38.468Z,52.33
2022-12-23T14:30:21.706Z,52.55
2022-12-23T14:32:52.358Z,51.33
2022-12-23T14:35:27.161Z,52.25
2022-12-23T14:38:14.186Z,48.63
2022-12-23T14:40:48.532Z,47.38
2022-12-23T14:43:43.611Z,50.22
2022-12-23T14:46:35.884Z,50.33
2022-12-23T14:49:37.127Z,51.35
2022-12-23T14:51:51.079Z,49.20
2022-12-23T14:54:36.662Z,50.13
2022-12-23T14:57:17.515Z,50.75
2022-12-23T15:00:01.380Z,51.92
2022-12-23T15:02:33.738Z,52.65
2022-12-23T15:05:01.239Z,52.80
2022-12-23T15:07:32.879Z,53.40
2022-12-23T15:10:02.230Z,56.42
2022-12-23T15:12:38.286Z,54.78
2022-12-23T15:15:17.398Z,55.65
2022-12-23T15:17:44.376Z,57.72
2022-12-23T15:20:11.216Z,53.42
2022-12-23T15:22:39.549Z,57.58
2022-12-23T15:25:20.622Z,60.40
2022-12-23T15:27:49.021Z,75.22
2022-12-23T15:30:17.342Z,60.85
2022-12-23T15:32:47.579Z,57.55
2022-12-23T15:35:26.339Z,59.95
2022-12-23T15:37:53.549Z,61.88
2022-12-23T15:40:38.160Z,66.32
2022-12-23T15:43:18.280Z,65.35
2022-12-23T15:45:45.047Z,60.47
2022-12-23T15:48:38.391Z,71.30
2022-12-23T15:51:57.910Z,68.88
2022-12-23T15:54:17.910Z,66.80
2022-12-23T15:56:49.167Z,60.85
2022-12-23T15:59:25.517Z,67.03
2022-12-23T16:01:53.096Z,62.30
2022-12-23T16:04:29.019Z,66.28
2022-12-23T16:06:56.423Z,63.92
2022-12-23T16:09:31.359Z,67.60
2022-12-23T16:12:21.543Z,70.47
2022-12-23T16:15:00.793Z,68.10
2022-12-23T16:17:33.412Z,69.40
2022-12-23T16:20:20.847Z,69.85
2022-12-23T16:22:50.873Z,69.70
2022-12-23T16:25:43.038Z,64.68
2022-12-23T16:28:21.603Z,70.82
2022-12-23T16:30:49.940Z,67.43
2022-12-23T16:33:36.985Z,71.55
2022-12-23T16:36:21.528Z,77.72
2022-12-23T16:38:50.958Z,70.82
2022-12-23T16:41:19.652Z,67.75
2022-12-23T16:43:51.843Z,65.47
2022-12-23T16:46:21.180Z,67.70
2022-12-23T16:48:58.472Z,69.00
2022-12-23T16:51:27.178Z,73.47
2022-12-23T16:53:56.396Z,81.47
2022-12-23T16:56:27.958Z,73.97
2022-12-23T16:58:54.662Z,72.45
2022-12-23T17:01:36.547Z,63.25
2022-12-23T17:04:04.395Z,65.82
2022-12-23T17:06:31.415Z,64.35
2022-12-23T17:11:45.320Z,62.22
2022-12-23T17:14:23.540Z,60.80
2022-12-23T17:16:51.359Z,62.15
2022-12-23T17:19:27.155Z,58.65
2022-12-23T17:22:02.856Z,56.65
2022-12-23T17:24:29.615Z,56.97
2022-12-23T17:26:59.242Z,59.25
2022-12-23T17:29:26.234Z,57.30
2022-12-23T17:34:22.379Z,57.50
2022-12-23T17:36:50.816Z,62.30
2022-12-23T17:39:18.896Z,66.85
2022-12-23T17:41:46.107Z,63.78
2022-12-23T17:44:17.295Z,59.38
2022-12-23T17:46:45.937Z,62.20
2022-12-23T17:49:12.881Z,59.30
2022-12-23T17:54:07.221Z,66.82
2022-12-23T17:59:00.851Z,71.00
2022-12-23T18:01:30.307Z,63.22
2022-12-23T18:03:58.871Z,65.70
2022-12-23T18:06:28.126Z,62.90
2022-12-23T18:08:57.363Z,66.10
2022-12-23T18:11:41.183Z,61.72
2022-12-23T18:14:23.765Z,69.20
2022-12-23T18:16:50.609Z,59.50
2022-12-23T18:19:20.080Z,60.70
2022-12-23T18:21:47.369Z,64.57
2022-12-23T18:24:14.371Z,54.40
2022-12-23T18:29:08.061Z,56.97
2022-12-23T18:34:03.979Z,56.80
2022-12-23T18:36:33.921Z,58.58
2022-12-23T18:39:00.832Z,51.55
2022-12-23T18:41:28.054Z,58.28
2022-12-23T18:43:55.057Z,60.83
2022-12-23T18:48:49.475Z,60.60
2022-12-23T18:51:18.524Z,56.20
2022-12-23T18:53:46.775Z,56.03
2022-12-23T18:56:21.317Z,56.70
2022-12-23T18:58:48.236Z,58.58
2022-12-23T19:01:16.565Z,59.17
2022-12-23T19:03:44.223Z,57.58
2022-12-23T19:06:14.117Z,54.50
2022-12-23T19:08:41.832Z,55.70
2022-12-23T19:11:20.625Z,54.47
2022-12-23T19:13:47.727Z,56.45
2022-12-23T19:16:17.032Z,51.25
2022-12-23T19:18:44.937Z,51.95
2022-12-23T19:21:12.452Z,51.33
2022-12-23T19:23:40.806Z,55.10
2022-12-23T19:26:10.127Z,51.70
2022-12-23T19:28:38.280Z,50.80
2022-12-23T19:31:11.012Z,51.17
2022-12-23T19:33:42.458Z,52.25
2022-12-23T19:36:22.739Z,52.78
2022-12-23T19:38:49.881Z,56.75
2022-12-23T19:41:17.483Z,59.40
2022-12-23T19:43:46.149Z,55.55
2022-12-23T19:46:14.832Z,56.60
2022-12-23T19:48:41.672Z,54.75
2022-12-23T19:51:11.549Z,61.53
2022-12-23T19:53:39.612Z,59.22
2022-12-23T19:56:11.360Z,60.38
2022-12-23T19:58:40.661Z,61.53
2022-12-23T20:01:12.881Z,62.53
2022-12-23T20:03:41.510Z,60.88
2022-12-23T20:06:16.026Z,64.32
2022-12-23T20:08:43.862Z,61.17
2022-12-23T20:11:14.266Z,61.38
2022-12-23T20:13:41.397Z,61.28
2022-12-23T20:16:08.731Z,62.05
2022-12-23T20:18:36.602Z,58.80
2022-12-23T20:21:04.042Z,62.92
2022-12-23T20:23:31.547Z,62.70
2022-12-23T20:25:58.418Z,62.47
2022-12-23T20:28:25.366Z,60.58
2022-12-23T20:33:26.314Z,57.90
2022-12-23T20:35:53.176Z,60.72
2022-12-23T20:38:20.468Z,63.33
2022-12-23T20:40:48.811Z,62.65
2022-12-23T20:43:15.679Z,63.40
2022-12-23T20:45:43.252Z,62.22
2022-12-23T20:48:10.422Z,60.80
2022-12-23T20:50:42.295Z,64.47
2022-12-23T20:53:10.530Z,62.20
2022-12-23T20:55:39.997Z,65.45
2022-12-23T20:58:25.092Z,62.60
2022-12-23T21:00:51.927Z,59.85
2022-12-23T21:03:18.869Z,61.80
2022-12-23T21:08:12.745Z,60.78
2022-12-23T21:10:39.637Z,62.72
2022-12-23T21:13:06.446Z,60.22
2022-12-23T21:15:33.422Z,57.28
2022-12-23T21:20:26.882Z,56.85
2022-12-23T21:22:53.592Z,56.10
2022-12-23T21:25:20.434Z,55.20
2022-12-23T21:27:47.134Z,56.05
2022-12-23T21:30:14.169Z,56.13
2022-12-23T21:32:40.927Z,55.67
2022-12-23T21:35:08.148Z,60.67
2022-12-23T21:37:34.965Z,60.22
2022-12-23T21:40:01.860Z,64.20
2022-12-23T21:42:28.647Z,57.20
2022-12-23T21:44:55.403Z,60.92
2022-12-23T21:47:22.112Z,59.80
2022-12-23T21:49:48.884Z,57.42
2022-12-23T21:52:15.671Z,56.15
2022-12-23T21:54:42.364Z,57.53
2022-12-23T21:57:09.590Z,58.70
2022-12-23T21:59:36.357Z,60.58
2022-12-23T22:02:03.164Z,61.35
2022-12-23T22:04:29.935Z,55.78
2022-12-23T22:06:56.686Z,61.40
2022-12-23T22:09:23.520Z,57.80
2022-12-23T22:11:50.339Z,57.83
2022-12-23T22:14:19.674Z,61.22
2022-12-23T22:16:46.821Z,57.75
2022-12-23T22:19:13.692Z,58.00
2022-12-23T22:21:42.431Z,60.67
2022-12-23T22:24:09.355Z,66.50
2022-12-23T22:26:36.419Z,56.83
2022-12-23T22:29:05.045Z,59.00
2022-12-23T22:31:39.909Z,58.70
2022-12-23T22:34:08.271Z,57.75
2022-12-23T22:36:35.301Z,56.67
2022-12-23T22:39:02.928Z,58.17
2022-12-23T22:41:30.790Z,55.70
2022-12-23T22:43:59.163Z,58.00
2022-12-23T22:46:26.689Z,55.10
2022-12-23T22:48:56.420Z,62.53
2022-12-23T22:51:25.714Z,59.67
2022-12-23T22:53:52.443Z,58.28
2022-12-23T22:56:21.789Z,60.80
2022-12-23T22:58:49.814Z,59.63
2022-12-23T23:01:24.201Z,62.42
2022-12-23T23:03:57.019Z,60.60
2022-12-23T23:06:26.123Z,59.80
2022-12-23T23:08:53.096Z,66.47
2022-12-23T23:13:46.902Z,65.78
2022-12-23T23:18:40.435Z,60.72
2022-12-23T23:21:08.590Z,65.18
2022-12-23T23:23:35.664Z,62.38
2022-12-23T23:26:02.801Z,71.03
2022-12-23T23:28:29.630Z,62.15
2022-12-23T23:31:31.491Z,66.72
2022-12-23T23:33:43.296Z,64.30
2022-12-23T23:36:10.782Z,64.40
2022-12-23T23:38:37.699Z,65.32
2022-12-23T23:41:04.840Z,66.72
2022-12-23T23:43:31.633Z,67.88
2022-12-23T23:45:58.474Z,65.97
2022-12-23T23:48:25.204Z,62.78
2022-12-23T23:50:52.101Z,66.95
2022-12-23T23:53:18.880Z,69.88
2022-12-23T23:55:45.692Z,70.78
2022-12-23T23:58:12.981Z,66.65
